createdAt,value
2023-04-19T00:00:16.948Z,0.02
2023-04-19T00:01:17.157Z,0.00
2023-04-19T00:02:17.535Z,0.00
2023-04-19T00:03:17.869Z,0.02
2023-04-19T00:04:18.381Z,0.00
2023-04-19T00:05:17.039Z,0.02
2023-04-19T00:06:17.097Z,0.00
2023-04-19T00:07:17.301Z,0.00
2023-04-19T00:08:17.484Z,0.02
2023-04-19T00:09:17.686Z,0.01
2023-04-19T00:10:16.785Z,0.02
2023-04-19T00:11:16.978Z,0.02
2023-04-19T00:12:17.177Z,0.00
2023-04-19T00:13:17.378Z,0.00
2023-04-19T00:14:17.716Z,0.02
2023-04-19T00:15:16.782Z,0.00
2023-04-19T00:16:16.975Z,0.00
2023-04-19T00:17:17.153Z,0.02
2023-04-19T00:18:17.330Z,0.02
2023-04-19T00:19:17.517Z,0.00
2023-04-19T00:20:17.798Z,0.02
2023-04-19T00:21:16.861Z,0.00
2023-04-19T00:22:17.060Z,0.00
2023-04-19T00:23:17.253Z,0.02
2023-04-19T00:24:17.388Z,0.00
2023-04-19T00:25:16.539Z,0.00
2023-04-19T00:26:16.874Z,0.02
2023-04-19T00:27:16.937Z,0.00
2023-04-19T00:28:17.131Z,0.02
2023-04-19T00:29:17.337Z,0.02
2023-04-19T00:30:16.496Z,0.02
2023-04-19T00:31:16.733Z,0.00
2023-04-19T00:32:16.940Z,0.00
2023-04-19T00:33:17.104Z,0.00
2023-04-19T00:34:17.417Z,0.01
2023-04-19T00:35:16.462Z,0.00
2023-04-19T00:36:16.620Z,0.00
2023-04-19T00:37:16.821Z,0.02
2023-04-19T00:38:17.052Z,0.00
2023-04-19T00:39:17.150Z,0.00
2023-04-19T00:40:16.308Z,0.00
2023-04-19T00:41:16.449Z,0.02
2023-04-19T00:42:16.647Z,0.00
2023-04-19T00:43:16.776Z,0.02
2023-04-19T00:44:17.138Z,0.00
2023-04-19T00:45:17.132Z,0.02
2023-04-19T00:46:16.334Z,0.00
2023-04-19T00:47:16.458Z,0.00
2023-04-19T00:48:16.662Z,0.00
2023-04-19T00:49:16.809Z,0.02
2023-04-19T00:50:17.031Z,0.02
2023-04-19T00:51:16.111Z,0.02
2023-04-19T00:52:16.284Z,0.02
2023-04-19T00:53:16.491Z,0.00
2023-04-19T00:54:16.880Z,0.01
2023-04-19T00:55:16.825Z,0.02
2023-04-19T00:56:17.145Z,0.02
2023-04-19T00:57:16.123Z,0.02
2023-04-19T00:58:16.314Z,0.00
2023-04-19T00:59:16.547Z,0.02
2023-04-19T01:00:16.731Z,0.00
2023-04-19T01:01:16.928Z,0.02
2023-04-19T01:02:16.231Z,0.00
2023-04-19T01:03:16.480Z,0.02
2023-04-19T01:04:16.850Z,0.02
2023-04-19T01:05:16.026Z,0.00
2023-04-19T01:06:16.246Z,0.01
2023-04-19T01:07:16.530Z,0.02
2023-04-19T01:08:16.650Z,0.02
2023-04-19T01:09:16.863Z,0.00
2023-04-19T01:10:16.041Z,0.00
2023-04-19T01:11:16.225Z,0.00
2023-04-19T01:12:16.427Z,0.00
2023-04-19T01:13:15.976Z,0.00
2023-04-19T01:14:16.438Z,0.00
2023-04-19T01:15:16.334Z,0.00
2023-04-19T01:16:16.634Z,0.00
2023-04-19T01:17:15.752Z,0.00
2023-04-19T01:18:15.957Z,0.00
2023-04-19T01:19:16.282Z,0.00
2023-04-19T01:20:16.408Z,0.00
2023-04-19T01:21:16.603Z,0.00
2023-04-19T01:22:15.766Z,0.00
2023-04-19T01:23:15.990Z,0.02
2023-04-19T01:24:16.415Z,0.00
2023-04-19T01:25:16.568Z,0.02
2023-04-19T01:26:15.638Z,0.00
2023-04-19T01:27:15.876Z,0.00
2023-04-19T01:28:16.088Z,0.00
2023-04-19T01:29:16.322Z,0.00
2023-04-19T01:30:16.541Z,0.00
2023-04-19T01:31:15.788Z,0.00
2023-04-19T01:32:15.970Z,0.00
2023-04-19T01:33:17.165Z,0.00
2023-04-19T01:34:16.635Z,0.00
2023-04-19T01:35:15.635Z,0.00
2023-04-19T01:36:15.928Z,0.00
2023-04-19T01:37:16.095Z,0.00
2023-04-19T01:38:16.315Z,0.00
2023-04-19T01:39:15.512Z,0.00
2023-04-19T01:40:15.723Z,0.02
2023-04-19T01:41:15.943Z,0.00
2023-04-19T01:42:16.177Z,0.00
2023-04-19T01:43:16.374Z,0.00
2023-04-19T01:44:15.794Z,0.00
2023-04-19T01:45:15.789Z,0.00
2023-04-19T01:46:16.050Z,0.00
2023-04-19T01:47:16.349Z,0.02
2023-04-19T01:48:15.409Z,0.04
2023-04-19T01:49:17.717Z,0.00
2023-04-19T01:50:15.855Z,0.00
2023-04-19T01:51:16.093Z,0.00
2023-04-19T01:52:15.260Z,0.00
2023-04-19T01:53:15.532Z,0.01
2023-04-19T01:54:15.943Z,0.02
2023-04-19T01:55:15.958Z,0.02
2023-04-19T01:56:16.180Z,0.00
2023-04-19T01:57:15.366Z,0.00
2023-04-19T01:58:16.055Z,0.02
2023-04-19T01:59:15.825Z,0.00
2023-04-19T02:00:16.057Z,0.00
2023-04-19T02:01:15.302Z,0.02
2023-04-19T02:02:15.644Z,0.05
2023-04-19T02:03:15.895Z,0.00
2023-04-19T02:04:16.343Z,0.00
2023-04-19T02:05:15.197Z,0.01
2023-04-19T02:06:15.428Z,0.00
2023-04-19T02:07:15.642Z,0.02
2023-04-19T02:08:15.866Z,0.02
2023-04-19T02:09:15.035Z,0.00
2023-04-19T02:10:15.620Z,0.02
2023-04-19T02:11:15.581Z,0.00
2023-04-19T02:12:15.718Z,0.00
2023-04-19T02:13:15.928Z,0.04
2023-04-19T02:14:15.366Z,0.00
2023-04-19T02:15:15.286Z,0.00
2023-04-19T02:16:15.584Z,0.02
2023-04-19T02:17:15.700Z,0.00
2023-04-19T02:18:15.879Z,0.02
2023-04-19T02:19:15.038Z,0.00
2023-04-19T02:20:15.261Z,0.02
2023-04-19T02:21:15.038Z,0.00
2023-04-19T02:22:15.698Z,0.01
2023-04-19T02:23:15.356Z,0.00
2023-04-19T02:24:15.699Z,0.02
2023-04-19T02:25:15.698Z,0.00
2023-04-19T02:26:14.836Z,0.02
2023-04-19T02:27:15.006Z,0.00
2023-04-19T02:28:15.229Z,0.02
2023-04-19T02:29:15.376Z,0.02
2023-04-19T02:30:15.581Z,0.01
2023-04-19T02:31:14.815Z,0.00
2023-04-19T02:32:15.006Z,0.00
2023-04-19T02:33:15.213Z,0.00
2023-04-19T02:34:15.924Z,0.02
2023-04-19T02:35:15.591Z,0.00
2023-04-19T02:36:14.752Z,0.00
2023-04-19T02:37:14.943Z,0.00
2023-04-19T02:38:15.172Z,0.00
2023-04-19T02:39:15.377Z,0.00
2023-04-19T02:40:15.613Z,0.00
2023-04-19T02:41:14.769Z,0.02
2023-04-19T02:42:14.992Z,0.00
2023-04-19T02:43:15.183Z,0.00
2023-04-19T02:44:15.712Z,0.02
2023-04-19T02:45:14.612Z,0.00
2023-04-19T02:46:14.881Z,0.00
2023-04-19T02:47:15.031Z,0.02
2023-04-19T02:48:15.278Z,0.00
2023-04-19T02:49:15.499Z,0.01
2023-04-19T02:50:14.691Z,0.00
2023-04-19T02:51:14.895Z,0.02
2023-04-19T02:52:14.614Z,0.02
2023-04-19T02:53:14.799Z,0.06
2023-04-19T02:54:15.218Z,0.00
2023-04-19T02:55:15.238Z,0.00
2023-04-19T02:56:14.430Z,0.02
2023-04-19T02:57:14.674Z,0.00
2023-04-19T02:58:14.862Z,0.00
2023-04-19T02:59:15.089Z,0.00
2023-04-19T03:00:15.323Z,0.00
2023-04-19T03:01:14.527Z,0.02
2023-04-19T03:02:14.768Z,0.00
2023-04-19T03:03:15.987Z,0.00
2023-04-19T03:04:15.386Z,0.00
2023-04-19T03:05:14.360Z,0.02
2023-04-19T03:06:14.561Z,0.00
2023-04-19T03:07:14.773Z,0.00
2023-04-19T03:08:15.045Z,0.02
2023-04-19T03:09:15.191Z,0.02
2023-04-19T03:10:14.435Z,0.00
2023-04-19T03:11:14.584Z,0.02
2023-04-19T03:12:15.833Z,0.00
2023-04-19T03:13:14.990Z,0.02
2023-04-19T03:14:15.869Z,0.00
2023-04-19T03:15:14.368Z,0.00
2023-04-19T03:16:14.541Z,0.00
2023-04-19T03:17:14.724Z,0.05
2023-04-19T03:18:14.958Z,0.00
2023-04-19T03:19:14.096Z,0.01
2023-04-19T03:20:14.348Z,0.00
2023-04-19T03:21:14.516Z,0.02
2023-04-19T03:22:14.721Z,0.00
2023-04-19T03:23:14.936Z,0.00
2023-04-19T03:24:14.293Z,0.02
2023-04-19T03:25:14.330Z,0.02
2023-04-19T03:26:14.566Z,0.00
2023-04-19T03:27:14.717Z,0.02
2023-04-19T03:28:15.370Z,0.02
2023-04-19T03:29:14.092Z,0.02
2023-04-19T03:30:14.316Z,0.02
2023-04-19T03:31:14.564Z,0.02
2023-04-19T03:32:14.853Z,0.00
2023-04-19T03:33:13.930Z,0.00
2023-04-19T03:34:14.563Z,0.00
2023-04-19T03:35:14.326Z,0.00
2023-04-19T03:36:14.531Z,0.02
2023-04-19T03:37:14.732Z,0.00
2023-04-19T03:38:13.929Z,0.00
2023-04-19T03:39:14.096Z,0.05
2023-04-19T03:40:14.308Z,0.00
2023-04-19T03:41:14.499Z,0.02
2023-04-19T03:42:14.701Z,0.02
2023-04-19T03:43:13.852Z,0.00
2023-04-19T03:44:14.410Z,0.02
2023-04-19T03:45:14.262Z,0.01
2023-04-19T03:46:14.477Z,0.01
2023-04-19T03:47:14.680Z,0.01
2023-04-19T03:48:13.836Z,0.01
2023-04-19T03:49:15.077Z,0.03
2023-04-19T03:50:14.275Z,0.01
2023-04-19T03:51:15.379Z,0.01
2023-04-19T03:52:14.621Z,0.02
2023-04-19T03:53:13.769Z,0.03
2023-04-19T03:54:14.097Z,0.03
2023-04-19T03:55:14.175Z,0.04
2023-04-19T03:56:14.400Z,0.11
2023-04-19T03:57:14.554Z,0.09
2023-04-19T03:58:14.667Z,0.12
2023-04-19T03:59:13.881Z,0.09
2023-04-19T04:00:14.107Z,0.11
2023-04-19T04:01:14.260Z,0.14
2023-04-19T04:02:14.579Z,0.16
2023-04-19T04:03:13.784Z,0.18
2023-04-19T04:04:14.084Z,0.21
2023-04-19T04:05:14.100Z,0.23
2023-04-19T04:06:14.191Z,0.28
2023-04-19T04:07:14.392Z,0.34
2023-04-19T04:08:13.586Z,0.37
2023-04-19T04:09:14.682Z,0.45
2023-04-19T04:10:14.840Z,0.51
2023-04-19T04:11:14.093Z,0.59
2023-04-19T04:12:14.236Z,0.67
2023-04-19T04:13:13.401Z,0.74
2023-04-19T04:14:13.781Z,0.84
2023-04-19T04:15:13.764Z,0.93
2023-04-19T04:16:13.952Z,1.10
2023-04-19T04:17:14.041Z,1.28
2023-04-19T04:18:14.216Z,1.46
2023-04-19T04:19:13.722Z,1.68
2023-04-19T04:20:13.782Z,1.84
2023-04-19T04:21:14.649Z,1.97
2023-04-19T04:22:13.869Z,2.10
2023-04-19T04:23:14.023Z,2.26
2023-04-19T04:24:14.372Z,2.38
2023-04-19T04:25:13.353Z,2.58
2023-04-19T04:26:13.640Z,2.87
2023-04-19T04:27:13.706Z,3.16
2023-04-19T04:28:13.919Z,3.50
2023-04-19T04:29:14.072Z,4.01
2023-04-19T04:30:14.158Z,4.89
2023-04-19T04:31:14.386Z,5.99
2023-04-19T04:32:13.681Z,7.58
2023-04-19T04:33:14.039Z,8.69
2023-04-19T04:34:15.207Z,10.13
2023-04-19T04:35:15.159Z,11.64
2023-04-19T04:36:13.246Z,13.32
2023-04-19T04:37:14.045Z,15.73
2023-04-19T04:38:23.647Z,18.55
2023-04-19T04:39:14.801Z,21.37
2023-04-19T04:40:14.944Z,25.26
2023-04-19T04:41:14.086Z,29.30
2023-04-19T04:42:14.286Z,34.43
2023-04-19T04:43:13.438Z,39.58
2023-04-19T04:44:13.666Z,44.45
2023-04-19T04:45:13.770Z,49.15
2023-04-19T04:46:14.965Z,54.26
2023-04-19T04:47:14.093Z,59.05
2023-04-19T04:48:14.260Z,63.24
2023-04-19T04:49:13.451Z,67.62
2023-04-19T04:50:13.696Z,71.78
2023-04-19T04:51:13.869Z,76.11
2023-04-19T04:52:12.991Z,80.44
2023-04-19T04:53:13.323Z,85.66
2023-04-19T04:54:13.422Z,91.73
2023-04-19T04:55:14.474Z,97.59
2023-04-19T04:56:13.707Z,103.06
2023-04-19T04:57:14.836Z,109.77
2023-04-19T04:58:13.968Z,114.89
2023-04-19T04:59:14.117Z,120.86
2023-04-19T05:00:14.306Z,127.50
2023-04-19T05:01:13.578Z,134.30
2023-04-19T05:02:13.795Z,142.05
2023-04-19T05:03:12.943Z,149.19
2023-04-19T05:04:13.208Z,155.27
2023-04-19T05:05:13.227Z,159.47
2023-04-19T05:06:14.398Z,162.54
2023-04-19T05:07:13.590Z,164.80
2023-04-19T05:08:12.864Z,169.10
2023-04-19T05:09:12.983Z,172.51
2023-04-19T05:10:13.139Z,173.76
2023-04-19T05:11:13.359Z,174.06
2023-04-19T05:12:13.551Z,172.70
2023-04-19T05:13:12.765Z,170.03
2023-04-19T05:14:13.026Z,167.86
2023-04-19T05:15:13.073Z,164.58
2023-04-19T05:16:13.264Z,160.54
2023-04-19T05:17:14.172Z,156.90
2023-04-19T05:18:13.682Z,153.81
2023-04-19T05:19:12.732Z,150.38
2023-04-19T05:20:12.954Z,144.62
2023-04-19T05:21:13.182Z,135.32
2023-04-19T05:22:15.300Z,127.11
2023-04-19T05:23:13.485Z,118.67
2023-04-19T05:24:12.641Z,108.68
2023-04-19T05:25:12.819Z,102.11
2023-04-19T05:26:13.090Z,96.58
2023-04-19T05:27:13.113Z,92.18
2023-04-19T05:28:14.300Z,86.22
2023-04-19T05:29:13.436Z,80.77
2023-04-19T05:30:12.653Z,80.61
2023-04-19T05:31:12.844Z,81.80
2023-04-19T05:32:13.100Z,82.68
2023-04-19T05:33:13.178Z,84.36
2023-04-19T05:34:12.347Z,86.52
2023-04-19T05:35:12.535Z,88.79
2023-04-19T05:36:12.708Z,90.25
2023-04-19T05:37:12.962Z,91.34
2023-04-19T05:38:13.087Z,92.57
2023-04-19T05:39:13.287Z,94.51
2023-04-19T05:40:12.445Z,97.14
2023-04-19T05:41:12.561Z,99.64
2023-04-19T05:42:12.735Z,102.26
2023-04-19T05:43:12.923Z,104.16
2023-04-19T05:44:13.344Z,104.92
2023-04-19T05:45:12.280Z,105.36
2023-04-19T05:46:12.534Z,106.13
2023-04-19T05:47:12.698Z,107.37
2023-04-19T05:48:12.864Z,108.74
2023-04-19T05:49:13.010Z,109.48
2023-04-19T05:50:12.216Z,110.22
2023-04-19T05:51:13.333Z,111.52
2023-04-19T05:52:13.581Z,113.56
2023-04-19T05:53:12.735Z,115.34
2023-04-19T05:54:12.930Z,117.17
2023-04-19T05:55:13.185Z,118.95
2023-04-19T05:56:12.239Z,120.63
2023-04-19T05:57:12.399Z,122.40
2023-04-19T05:58:13.643Z,124.95
2023-04-19T05:59:12.799Z,127.72
2023-04-19T06:00:12.945Z,129.66
2023-04-19T06:01:12.174Z,130.32
2023-04-19T06:02:12.383Z,129.88
2023-04-19T06:03:12.675Z,129.46
2023-04-19T06:04:12.936Z,129.99
2023-04-19T06:05:12.999Z,132.00
2023-04-19T06:06:12.050Z,133.57
2023-04-19T06:07:22.226Z,133.95
2023-04-19T06:08:13.371Z,134.26
2023-04-19T06:09:13.506Z,134.01
2023-04-19T06:10:12.794Z,133.37
2023-04-19T06:11:23.276Z,132.17
2023-04-19T06:12:13.088Z,130.14
2023-04-19T06:13:13.231Z,127.81
2023-04-19T06:14:12.441Z,125.81
2023-04-19T06:15:12.637Z,123.76
2023-04-19T06:16:11.802Z,121.83
2023-04-19T06:17:11.955Z,120.81
2023-04-19T06:18:19.394Z,120.80
2023-04-19T06:19:13.329Z,121.49
2023-04-19T06:20:12.531Z,122.31
2023-04-19T06:21:12.650Z,123.09
2023-04-19T06:22:11.841Z,123.91
2023-04-19T06:23:12.046Z,124.22
2023-04-19T06:24:12.241Z,125.23
2023-04-19T06:25:12.388Z,127.37
2023-04-19T06:26:12.585Z,130.41
2023-04-19T06:27:11.722Z,132.18
2023-04-19T06:28:12.869Z,132.39
2023-04-19T06:29:13.047Z,132.30
2023-04-19T06:30:12.674Z,133.75
2023-04-19T06:31:12.501Z,136.52
2023-04-19T06:32:11.580Z,140.23
2023-04-19T06:33:11.791Z,144.55
2023-04-19T06:34:12.007Z,151.87
2023-04-19T06:35:13.172Z,156.85
2023-04-19T06:36:12.386Z,160.49
2023-04-19T06:37:11.506Z,163.26
2023-04-19T06:38:11.724Z,166.55
2023-04-19T06:39:11.907Z,171.44
2023-04-19T06:40:12.088Z,176.17
2023-04-19T06:41:12.301Z,178.53
2023-04-19T06:42:12.468Z,180.28
2023-04-19T06:43:11.551Z,182.03
2023-04-19T06:44:11.848Z,183.92
2023-04-19T06:45:11.952Z,186.39
2023-04-19T06:46:12.124Z,188.79
2023-04-19T06:47:12.370Z,190.93
2023-04-19T06:48:12.595Z,193.11
2023-04-19T06:49:11.626Z,196.71
2023-04-19T06:50:11.820Z,201.49
2023-04-19T06:51:11.973Z,206.24
2023-04-19T06:52:13.101Z,210.60
2023-04-19T06:53:11.352Z,214.64
2023-04-19T06:54:11.521Z,217.96
2023-04-19T06:55:12.602Z,221.38
2023-04-19T06:56:11.836Z,224.52
2023-04-19T06:57:11.984Z,227.57
2023-04-19T06:58:13.227Z,226.09
2023-04-19T06:59:11.344Z,227.31
2023-04-19T07:00:11.546Z,234.70
2023-04-19T07:01:11.721Z,239.60
2023-04-19T07:02:11.870Z,242.50
2023-04-19T07:03:13.126Z,245.82
2023-04-19T07:04:11.330Z,247.61
2023-04-19T07:05:12.270Z,252.13
2023-04-19T07:06:11.548Z,259.49
2023-04-19T07:07:11.678Z,267.93
2023-04-19T07:08:11.865Z,274.31
2023-04-19T07:09:12.088Z,279.38
2023-04-19T07:10:11.214Z,286.58
2023-04-19T07:11:11.363Z,292.18
2023-04-19T07:12:11.681Z,296.07
2023-04-19T07:13:11.765Z,300.12
2023-04-19T07:14:11.880Z,301.52
2023-04-19T07:15:13.118Z,296.87
2023-04-19T07:16:11.231Z,298.62
2023-04-19T07:17:11.329Z,299.14
2023-04-19T07:18:11.507Z,296.55
2023-04-19T07:19:11.663Z,297.35
2023-04-19T07:20:11.932Z,301.01
2023-04-19T07:21:10.976Z,305.41
2023-04-19T07:22:12.662Z,311.18
2023-04-19T07:23:11.329Z,318.95
2023-04-19T07:24:11.580Z,327.45
2023-04-19T07:25:11.686Z,351.59
2023-04-19T07:26:11.870Z,360.24
2023-04-19T07:27:11.008Z,369.87
2023-04-19T07:28:11.187Z,379.23
2023-04-19T07:29:12.298Z,388.36
2023-04-19T07:30:11.525Z,398.15
2023-04-19T07:31:11.742Z,409.47
2023-04-19T07:32:11.882Z,423.61
2023-04-19T07:33:11.081Z,440.73
2023-04-19T07:34:11.170Z,462.27
2023-04-19T07:35:12.313Z,487.72
2023-04-19T07:36:11.712Z,499.66
2023-04-19T07:37:11.712Z,563.88
2023-04-19T07:38:10.830Z,706.52
2023-04-19T07:39:11.037Z,761.53
2023-04-19T07:40:12.095Z,833.97
2023-04-19T07:41:11.296Z,802.43
2023-04-19T07:42:11.471Z,801.24
2023-04-19T07:43:12.571Z,605.40
2023-04-19T07:44:10.726Z,621.33
2023-04-19T07:45:11.878Z,694.64
2023-04-19T07:46:11.071Z,737.75
2023-04-19T07:47:12.149Z,861.83
2023-04-19T07:48:11.358Z,918.16
2023-04-19T07:49:11.476Z,875.76
2023-04-19T07:50:10.540Z,870.91
2023-04-19T07:51:10.646Z,900.85
2023-04-19T07:52:10.829Z,941.01
2023-04-19T07:53:10.936Z,881.79
2023-04-19T07:54:11.097Z,802.07
2023-04-19T07:55:11.272Z,846.86
2023-04-19T07:56:12.858Z,722.57
2023-04-19T07:57:11.416Z,866.69
2023-04-19T07:58:10.572Z,867.85
2023-04-19T07:59:10.708Z,869.33
2023-04-19T08:00:10.922Z,877.00
2023-04-19T08:01:10.975Z,872.50
2023-04-19T08:02:12.213Z,883.79
2023-04-19T08:03:12.423Z,872.31
2023-04-19T08:04:11.533Z,866.41
2023-04-19T08:05:10.521Z,900.79
2023-04-19T08:06:10.693Z,917.49
2023-04-19T08:07:11.682Z,932.82
2023-04-19T08:08:10.839Z,942.97
2023-04-19T08:09:11.916Z,975.50
2023-04-19T08:10:12.056Z,948.67
2023-04-19T08:11:11.245Z,990.15
2023-04-19T08:12:14.826Z,987.87
2023-04-19T08:13:11.445Z,982.88
2023-04-19T08:14:25.861Z,977.44
2023-04-19T08:15:32.893Z,973.74
2023-04-19T08:17:25.304Z,857.95
2023-04-19T08:18:11.312Z,859.57
2023-04-19T08:19:10.322Z,975.61
2023-04-19T08:20:10.464Z,971.83
2023-04-19T08:21:10.592Z,979.77
2023-04-19T08:22:10.853Z,988.45
2023-04-19T08:23:22.330Z,959.04
2023-04-19T08:24:11.981Z,918.72
2023-04-19T08:25:10.101Z,932.63
2023-04-19T08:26:12.344Z,961.12
2023-04-19T08:27:10.410Z,987.55
2023-04-19T08:28:10.647Z,991.10
2023-04-19T08:29:10.683Z,996.24
2023-04-19T08:30:11.786Z,993.93
2023-04-19T08:31:11.931Z,998.60
2023-04-19T08:32:11.138Z,1005.50
2023-04-19T08:33:11.210Z,1009.89
2023-04-19T08:34:10.395Z,1011.07
2023-04-19T08:35:11.439Z,1015.69
2023-04-19T08:36:10.620Z,1018.71
2023-04-19T08:37:10.785Z,1020.60
2023-04-19T08:38:11.859Z,1025.26
2023-04-19T08:39:29.063Z,1021.89
2023-04-19T08:40:11.323Z,1006.46
2023-04-19T08:41:10.359Z,1018.76
2023-04-19T08:42:18.292Z,1024.55
2023-04-19T08:43:11.619Z,995.25
2023-04-19T08:44:10.688Z,1007.19
2023-04-19T08:45:26.986Z,1002.82
2023-04-19T08:46:11.006Z,979.25
2023-04-19T08:47:11.520Z,974.12
2023-04-19T08:48:11.242Z,997.32
2023-04-19T08:49:10.323Z,1028.03
2023-04-19T08:50:24.078Z,1025.22
2023-04-19T08:51:11.634Z,1027.26
2023-04-19T08:52:10.753Z,1033.63
2023-04-19T08:54:10.961Z,1026.88
2023-04-19T08:55:11.126Z,1030.71
2023-04-19T08:56:17.488Z,1008.17
2023-04-19T08:57:11.568Z,906.34
2023-04-19T08:58:18.923Z,968.11
2023-04-19T08:59:18.156Z,1102.28
2023-04-19T09:00:10.901Z,1041.90
2023-04-19T09:01:14.888Z,1094.09
2023-04-19T09:02:11.281Z,690.99
2023-04-19T09:03:10.570Z,674.90
2023-04-19T09:04:34.650Z,692.88
2023-04-19T09:05:10.777Z,804.09
2023-04-19T09:06:09.889Z,720.52
2023-04-19T09:07:09.879Z,945.03
2023-04-19T09:08:09.981Z,1154.65
2023-04-19T09:09:14.261Z,658.35
2023-04-19T09:10:11.274Z,655.65
2023-04-19T09:11:10.406Z,664.76
2023-04-19T09:12:09.579Z,653.69
2023-04-19T09:13:09.651Z,642.58
2023-04-19T09:14:09.787Z,640.35
2023-04-19T09:15:09.982Z,665.26
2023-04-19T09:16:10.095Z,670.62
2023-04-19T09:17:10.217Z,670.21
2023-04-19T09:18:11.327Z,642.29
2023-04-19T09:19:23.239Z,678.57
2023-04-19T09:20:10.789Z,652.28
2023-04-19T09:21:10.700Z,661.47
2023-04-19T09:22:09.960Z,651.74
2023-04-19T09:23:10.040Z,644.09
2023-04-19T09:24:10.202Z,674.46
2023-04-19T09:26:22.991Z,653.26
2023-04-19T09:27:10.569Z,783.91
2023-04-19T09:28:09.798Z,729.74
2023-04-19T09:29:11.114Z,709.28
2023-04-19T09:30:17.666Z,681.65
2023-04-19T09:31:33.238Z,913.85
2023-04-19T09:32:10.366Z,701.40
2023-04-19T09:33:09.608Z,705.84
2023-04-19T09:34:10.536Z,661.52
2023-04-19T09:35:09.722Z,676.16
2023-04-19T09:36:09.845Z,700.46
2023-04-19T09:37:17.259Z,687.86
2023-04-19T09:38:10.071Z,655.15
2023-04-19T09:39:09.260Z,712.20
2023-04-19T09:40:09.392Z,678.30
2023-04-19T09:41:09.530Z,792.05
2023-04-19T09:42:09.752Z,693.73
2023-04-19T09:43:26.260Z,854.84
2023-04-19T09:44:44.571Z,1268.63
2023-04-19T09:46:09.303Z,715.24
2023-04-19T09:47:10.484Z,715.99
2023-04-19T09:48:09.605Z,739.75
2023-04-19T09:49:21.240Z,1334.72
2023-04-19T09:50:22.588Z,1543.97
2023-04-19T09:51:14.405Z,1030.41
2023-04-19T09:52:09.141Z,1131.25
2023-04-19T09:53:09.236Z,1512.70
2023-04-19T09:54:09.366Z,1505.69
2023-04-19T09:55:18.143Z,1526.12
2023-04-19T09:56:10.620Z,1539.97
2023-04-19T09:57:09.794Z,1563.66
2023-04-19T09:58:09.832Z,1575.57
2023-04-19T09:59:20.256Z,1562.54
2023-04-19T10:00:10.106Z,1570.78
2023-04-19T10:01:14.747Z,1305.73
2023-04-19T10:02:10.384Z,1474.68
2023-04-19T10:03:09.645Z,1464.96
2023-04-19T10:04:22.499Z,1442.30
2023-04-19T10:05:20.621Z,1444.40
2023-04-19T10:06:14.736Z,1408.35
2023-04-19T10:07:29.523Z,1412.49
2023-04-19T10:08:11.172Z,1401.20
2023-04-19T10:09:10.170Z,1424.57
2023-04-19T10:10:19.550Z,1431.66
2023-04-19T10:11:10.588Z,1450.21
2023-04-19T10:12:24.032Z,1483.54
2023-04-19T10:13:18.891Z,1508.27
2023-04-19T10:14:09.842Z,1449.37
2023-04-19T10:15:08.980Z,1454.88
2023-04-19T10:16:18.888Z,1484.73
2023-04-19T10:17:10.615Z,1528.93
2023-04-19T10:18:09.468Z,1507.64
2023-04-19T10:19:10.364Z,1459.97
2023-04-19T10:20:08.592Z,1456.80
2023-04-19T10:21:09.709Z,1440.89
2023-04-19T10:22:08.890Z,1404.55
2023-04-19T10:23:09.082Z,1364.38
2023-04-19T10:24:09.086Z,1384.67
2023-04-19T10:25:09.210Z,1371.59
2023-04-19T10:26:09.366Z,1357.67
2023-04-19T10:27:09.475Z,1339.21
2023-04-19T10:28:08.542Z,1310.77
2023-04-19T10:29:09.782Z,1300.17
2023-04-19T10:30:08.776Z,1314.90
2023-04-19T10:31:08.895Z,1327.68
2023-04-19T10:32:09.096Z,1293.23
2023-04-19T10:33:09.218Z,1308.57
2023-04-19T10:34:09.287Z,1335.21
2023-04-19T10:35:08.530Z,1306.83
2023-04-19T10:36:08.498Z,1273.66
2023-04-19T10:37:08.601Z,1307.89
2023-04-19T10:38:08.746Z,1291.86
2023-04-19T10:39:08.819Z,1213.87
2023-04-19T10:40:08.954Z,1228.95
2023-04-19T10:41:09.080Z,1158.88
2023-04-19T10:42:09.201Z,1122.39
2023-04-19T10:43:08.355Z,1257.89
2023-04-19T10:44:08.482Z,1301.33
2023-04-19T10:45:08.560Z,1350.26
2023-04-19T10:46:09.061Z,1403.04
2023-04-19T10:47:08.818Z,1413.30
2023-04-19T10:48:08.933Z,1467.03
2023-04-19T10:49:09.073Z,1504.99
2023-04-19T10:50:09.201Z,1504.73
2023-04-19T10:51:08.306Z,1514.00
2023-04-19T10:52:08.489Z,1474.24
2023-04-19T10:53:08.558Z,1488.88
2023-04-19T10:54:08.671Z,1438.42
2023-04-19T10:55:08.801Z,1365.22
2023-04-19T10:56:08.874Z,1323.54
2023-04-19T10:57:09.029Z,1307.43
2023-04-19T10:58:08.098Z,1287.12
2023-04-19T10:59:09.190Z,1240.13
2023-04-19T11:00:08.321Z,1266.80
2023-04-19T11:01:08.401Z,1247.50
2023-04-19T11:02:08.611Z,1286.01
2023-04-19T11:03:08.750Z,1294.77
2023-04-19T11:04:08.986Z,1311.30
2023-04-19T11:05:08.874Z,1308.68
2023-04-19T11:06:08.945Z,1300.15
2023-04-19T11:07:08.032Z,1310.69
2023-04-19T11:08:08.177Z,1335.45
2023-04-19T11:09:08.381Z,1335.14
2023-04-19T11:10:09.383Z,1299.92
2023-04-19T11:11:09.461Z,1292.38
2023-04-19T11:12:09.632Z,1230.62
2023-04-19T11:13:10.729Z,1178.17
2023-04-19T11:14:07.828Z,1229.44
2023-04-19T11:15:08.015Z,1229.11
2023-04-19T11:16:09.093Z,1275.47
2023-04-19T11:17:09.173Z,1272.13
2023-04-19T11:18:12.843Z,1199.62
2023-04-19T11:19:09.419Z,1153.57
2023-04-19T11:20:08.888Z,1117.04
2023-04-19T11:21:09.646Z,1151.29
2023-04-19T11:22:10.881Z,1197.90
2023-04-19T11:23:09.959Z,1231.56
2023-04-19T11:24:08.965Z,1306.04
2023-04-19T11:25:08.136Z,1392.99
2023-04-19T11:26:08.303Z,1597.41
2023-04-19T11:27:09.322Z,1673.98
2023-04-19T11:28:08.462Z,1626.19
2023-04-19T11:29:08.571Z,1553.56
2023-04-19T11:30:08.709Z,1599.60
2023-04-19T11:31:08.958Z,1525.41
2023-04-19T11:32:08.854Z,1458.04
2023-04-19T11:33:09.031Z,1375.70
2023-04-19T11:34:09.045Z,1344.00
2023-04-19T11:35:09.118Z,1257.07
2023-04-19T11:36:09.211Z,1343.49
2023-04-19T11:37:08.381Z,1482.17
2023-04-19T11:38:08.432Z,1378.97
2023-04-19T11:39:08.489Z,1256.42
2023-04-19T11:40:09.619Z,1384.68
2023-04-19T11:41:08.729Z,1375.37
2023-04-19T11:42:07.781Z,1369.94
2023-04-19T11:43:08.980Z,1528.11
2023-04-19T11:44:08.958Z,1296.84
2023-04-19T11:45:18.620Z,1562.37
2023-04-19T11:46:09.172Z,1389.58
2023-04-19T11:47:09.300Z,1139.61
2023-04-19T11:48:09.296Z,1084.60
2023-04-19T11:49:09.683Z,1000.14
2023-04-19T11:50:09.516Z,1186.67
2023-04-19T11:51:09.568Z,1254.15
2023-04-19T11:52:09.656Z,1612.18
2023-04-19T11:53:08.741Z,1592.70
2023-04-19T11:54:08.812Z,1538.74
2023-04-19T11:55:07.995Z,1432.70
2023-04-19T11:56:10.051Z,1574.45
2023-04-19T11:57:10.127Z,1066.82
2023-04-19T11:58:09.198Z,1107.01
2023-04-19T11:59:09.312Z,1170.41
2023-04-19T12:00:09.481Z,1437.83
2023-04-19T12:01:08.555Z,1548.58
2023-04-19T12:02:09.733Z,1776.30
2023-04-19T12:03:08.793Z,1713.64
2023-04-19T12:04:08.850Z,1284.07
2023-04-19T12:05:09.084Z,1275.48
2023-04-19T12:06:10.240Z,1601.19
2023-04-19T12:07:09.114Z,1028.50
2023-04-19T12:08:09.196Z,1051.44
2023-04-19T12:09:09.338Z,1034.67
2023-04-19T12:10:11.477Z,1052.41
2023-04-19T12:11:10.535Z,1038.32
2023-04-19T12:12:09.581Z,983.22
2023-04-19T12:13:08.704Z,1052.95
2023-04-19T12:14:08.849Z,1060.31
2023-04-19T12:15:08.867Z,1105.82
2023-04-19T12:16:09.110Z,1119.46
2023-04-19T12:17:09.276Z,1090.52
2023-04-19T12:18:09.258Z,1114.98
2023-04-19T12:19:08.310Z,1099.49
2023-04-19T12:20:09.335Z,1023.70
2023-04-19T12:21:08.561Z,1136.26
2023-04-19T12:22:10.093Z,1103.45
2023-04-19T12:23:09.669Z,1189.75
2023-04-19T12:24:08.775Z,1100.13
2023-04-19T12:25:08.826Z,1324.91
2023-04-19T12:26:07.985Z,1334.58
2023-04-19T12:27:08.147Z,1521.56
2023-04-19T12:28:09.220Z,1471.18
2023-04-19T12:29:09.376Z,1578.34
2023-04-19T12:30:08.441Z,1285.36
2023-04-19T12:31:07.511Z,1278.25
2023-04-19T12:32:08.636Z,1313.11
2023-04-19T12:33:08.736Z,1487.18
2023-04-19T12:34:09.042Z,1541.35
2023-04-19T12:35:08.993Z,1538.57
2023-04-19T12:36:09.054Z,1495.03
2023-04-19T12:37:09.160Z,1562.06
2023-04-19T12:38:09.238Z,1629.69
2023-04-19T12:39:11.448Z,1644.62
2023-04-19T12:40:09.471Z,1530.18
2023-04-19T12:41:08.626Z,1519.87
2023-04-19T12:42:08.660Z,1321.57
2023-04-19T12:43:08.864Z,1307.29
2023-04-19T12:44:08.875Z,1370.22